createdAt,value
2023-02-27T00:02:51.327Z,100659.97
2023-02-27T00:07:53.134Z,100661.00
2023-02-27T00:12:56.221Z,100660.63
2023-02-27T00:18:00.568Z,100659.50
2023-02-27T00:23:02.179Z,100657.81
2023-02-27T00:28:05.019Z,100666.09
2023-02-27T00:33:06.989Z,100661.34
2023-02-27T00:38:08.617Z,100661.53
2023-02-27T00:43:10.235Z,100660.44
2023-02-27T00:48:11.920Z,100663.81
2023-02-27T00:53:13.563Z,100670.09
2023-02-27T00:58:15.207Z,100668.91
2023-02-27T01:03:16.835Z,100661.94
2023-02-27T01:08:18.518Z,100669.91
2023-02-27T01:13:20.155Z,100663.81
2023-02-27T01:18:21.818Z,100663.97
2023-02-27T01:23:23.606Z,100657.59
2023-02-27T01:28:25.314Z,100659.63
2023-02-27T01:33:26.977Z,100652.13
2023-02-27T01:38:28.657Z,100645.41
2023-02-27T01:43:30.390Z,100658.69
2023-02-27T01:48:38.787Z,100666.25
2023-02-27T01:53:43.764Z,100666.16
2023-02-27T01:58:49.012Z,100664.53
2023-02-27T02:04:14.787Z,100662.50
2023-02-27T02:09:20.491Z,100662.25
2023-02-27T02:14:22.101Z,100676.00
2023-02-27T02:19:29.625Z,100674.66
2023-02-27T02:24:56.322Z,100675.28
2023-02-27T02:30:35.601Z,100687.03
2023-02-27T02:35:37.200Z,100689.50
2023-02-27T02:40:38.799Z,100696.59
2023-02-27T02:45:52.461Z,100689.22
2023-02-27T02:51:05.973Z,100695.25
2023-02-27T02:56:19.628Z,100691.34
2023-02-27T03:01:32.915Z,100700.03
2023-02-27T03:06:40.106Z,100708.44
2023-02-27T03:11:45.626Z,100709.50
2023-02-27T03:16:53.276Z,100712.78
2023-02-27T03:22:01.276Z,100713.19
2023-02-27T03:27:05.844Z,100718.31
2023-02-27T03:32:17.796Z,100717.72
2023-02-27T03:37:27.157Z,100711.34
2023-02-27T03:42:53.582Z,100726.75
2023-02-27T03:48:01.169Z,100730.53
2023-02-27T03:53:11.327Z,100729.31
2023-02-27T03:58:14.429Z,100730.31
2023-02-27T04:03:16.477Z,100737.59
2023-02-27T04:08:39.647Z,100726.97
2023-02-27T04:14:06.830Z,100724.09
2023-02-27T04:19:30.396Z,100738.28
2023-02-27T04:24:49.950Z,100740.13
2023-02-27T04:30:01.315Z,100746.84
2023-02-27T04:35:15.731Z,100747.88
2023-02-27T04:40:28.287Z,100742.16
2023-02-27T04:45:33.466Z,100750.25
2023-02-27T04:50:44.819Z,100743.13
2023-02-27T04:55:51.717Z,100740.19
2023-02-27T05:01:03.913Z,100734.25
2023-02-27T05:06:08.081Z,100758.59
2023-02-27T05:11:18.269Z,100755.56
2023-02-27T05:16:33.121Z,100765.75
2023-02-27T05:21:48.842Z,100766.97
2023-02-27T05:27:12.187Z,100769.78
2023-02-27T05:32:35.080Z,100786.09
2023-02-27T05:37:45.505Z,100790.50
2023-02-27T05:43:00.816Z,100791.66
2023-02-27T05:48:12.438Z,100789.50
2023-02-27T05:53:17.983Z,100799.78
2023-02-27T05:58:25.670Z,100800.94
2023-02-27T06:03:29.769Z,100807.38
2023-02-27T06:08:31.502Z,100813.44
2023-02-27T06:13:33.237Z,100822.00
2023-02-27T06:18:34.857Z,100824.78
2023-02-27T06:23:36.459Z,100830.50
2023-02-27T06:28:38.359Z,100834.78
2023-02-27T06:33:40.012Z,100828.41
2023-02-27T06:38:41.638Z,100841.53
2023-02-27T06:43:43.394Z,100850.91
2023-02-27T06:48:45.628Z,100851.56
2023-02-27T06:53:47.567Z,100844.03
2023-02-27T06:58:49.197Z,100846.06
2023-02-27T07:03:50.975Z,100852.47
2023-02-27T07:09:01.592Z,100845.84
2023-02-27T07:14:08.006Z,100841.63
2023-02-27T07:19:10.634Z,100845.41
2023-02-27T07:24:12.504Z,100853.25
2023-02-27T07:29:15.005Z,100848.75
2023-02-27T07:34:16.895Z,100844.72
2023-02-27T07:39:19.455Z,100846.59
2023-02-27T07:44:21.141Z,100843.31
2023-02-27T07:49:22.786Z,100841.59
2023-02-27T07:54:24.431Z,100853.19
2023-02-27T07:59:26.037Z,100849.22
2023-02-27T08:04:27.674Z,100859.75
2023-02-27T08:09:30.832Z,100861.25
2023-02-27T08:14:32.496Z,100868.22
2023-02-27T08:19:34.389Z,100863.06
2023-02-27T08:24:36.336Z,100882.38
2023-02-27T08:29:38.057Z,100882.69
2023-02-27T08:34:39.803Z,100885.22
2023-02-27T08:39:41.538Z,100890.63
2023-02-27T08:44:43.450Z,100892.56
2023-02-27T08:49:45.051Z,100881.94
2023-02-27T08:54:46.711Z,100897.75
2023-02-27T08:59:48.363Z,100894.34
2023-02-27T09:04:50.110Z,100899.47
2023-02-27T09:09:51.785Z,100913.28
2023-02-27T09:14:53.559Z,100905.72
2023-02-27T09:19:57.286Z,100906.16
2023-02-27T09:25:00.261Z,100909.06
2023-02-27T09:30:02.150Z,100908.56
2023-02-27T09:35:04.256Z,100913.66
2023-02-27T09:40:10.715Z,100915.88
2023-02-27T09:45:24.767Z,100915.94
2023-02-27T09:50:40.585Z,100921.66
2023-02-27T09:55:44.276Z,100927.13
2023-02-27T10:00:51.230Z,100927.63
2023-02-27T10:06:30.204Z,100920.13
2023-02-27T10:11:43.815Z,100917.31
2023-02-27T10:16:50.002Z,100930.03
2023-02-27T10:21:56.678Z,100923.28
2023-02-27T10:27:01.338Z,100927.72
2023-02-27T10:32:14.949Z,100937.44
2023-02-27T10:37:20.908Z,100931.41
2023-02-27T10:42:26.043Z,100941.88
2023-02-27T10:47:27.753Z,100926.81
2023-02-27T10:52:31.023Z,100930.63
2023-02-27T10:57:42.246Z,100924.13
2023-02-27T11:02:44.469Z,100924.16
2023-02-27T11:07:46.288Z,100926.59
2023-02-27T11:13:05.673Z,100919.84
2023-02-27T11:18:29.370Z,100914.56
2023-02-27T11:23:34.086Z,100915.31
2023-02-27T11:28:35.809Z,100914.91
2023-02-27T11:33:52.313Z,100912.91
2023-02-27T11:38:55.874Z,100909.97
2023-02-27T11:43:59.227Z,100910.81
2023-02-27T11:49:21.981Z,100905.94
2023-02-27T11:54:36.439Z,100907.56
2023-02-27T11:59:41.810Z,100902.47
2023-02-27T12:04:47.971Z,100885.22
2023-02-27T12:09:59.132Z,100884.25
2023-02-27T12:15:18.128Z,100888.69
2023-02-27T12:20:38.330Z,100884.63
2023-02-27T12:25:40.001Z,100878.78
2023-02-27T12:31:00.196Z,100880.72
2023-02-27T12:36:03.481Z,100891.31
2023-02-27T12:41:14.853Z,100886.31
2023-02-27T12:46:31.712Z,100878.41
2023-02-27T12:51:51.275Z,100871.94
2023-02-27T12:57:06.096Z,100876.41
2023-02-27T13:02:13.845Z,100870.50
2023-02-27T13:07:43.840Z,100874.03
2023-02-27T13:12:57.335Z,100873.94
2023-02-27T13:18:09.503Z,100866.28
2023-02-27T13:23:18.942Z,100877.38
2023-02-27T13:28:25.574Z,100880.06
2023-02-27T13:33:53.130Z,100856.97
2023-02-27T13:38:56.138Z,100855.78
2023-02-27T13:44:19.093Z,100859.97
2023-02-27T13:49:30.188Z,100872.31
2023-02-27T13:54:34.431Z,100868.41
2023-02-27T13:59:41.950Z,100869.97
2023-02-27T14:04:52.768Z,100870.13
2023-02-27T14:10:08.927Z,100876.69
2023-02-27T14:15:17.898Z,100881.56
2023-02-27T14:20:19.552Z,100878.66
2023-02-27T14:25:26.456Z,100880.84
2023-02-27T14:30:38.226Z,100877.31
2023-02-27T14:35:45.607Z,100866.88
2023-02-27T14:41:29.300Z,100884.75
2023-02-27T14:46:39.314Z,100886.41
2023-02-27T14:51:41.151Z,100895.91
2023-02-27T14:56:55.025Z,100892.50
2023-02-27T15:01:59.164Z,100896.78
2023-02-27T15:07:01.137Z,100899.25
2023-02-27T15:12:04.780Z,100904.22
2023-02-27T15:17:19.079Z,100910.81
2023-02-27T15:22:38.108Z,100910.56
2023-02-27T15:27:42.495Z,100907.91
2023-02-27T15:32:44.487Z,100917.84
2023-02-27T15:37:54.481Z,100915.34
2023-02-27T15:42:57.235Z,100921.56
2023-02-27T15:47:59.234Z,100926.50
2023-02-27T15:53:20.407Z,100936.81
2023-02-27T15:58:25.306Z,100955.09
2023-02-27T16:03:33.098Z,100949.63
2023-02-27T16:08:34.797Z,100948.88
2023-02-27T16:13:41.190Z,100955.81
2023-02-27T16:18:54.729Z,100963.38
2023-02-27T16:24:20.193Z,100963.16
2023-02-27T16:29:23.861Z,100965.69
2023-02-27T16:34:47.545Z,100975.69
2023-02-27T16:39:52.255Z,100985.41
2023-02-27T16:44:53.925Z,100983.97
2023-02-27T16:49:55.589Z,100985.09
2023-02-27T16:54:57.309Z,100996.44
2023-02-27T16:59:58.975Z,100999.78
2023-02-27T17:05:00.658Z,100999.00
2023-02-27T17:10:03.056Z,100988.81
2023-02-27T17:15:05.076Z,101007.28
2023-02-27T17:20:07.551Z,101003.31
2023-02-27T17:25:10.528Z,101010.44
2023-02-27T17:30:14.265Z,101017.25
2023-02-27T17:35:15.891Z,101014.28
2023-02-27T17:40:17.970Z,101018.88
2023-02-27T17:45:21.165Z,101016.34
2023-02-27T17:50:22.797Z,101021.44
2023-02-27T17:55:24.395Z,101029.13
2023-02-27T18:00:26.122Z,101029.41
2023-02-27T18:05:27.872Z,101030.44
2023-02-27T18:10:29.473Z,101026.81
2023-02-27T18:15:31.829Z,101028.13
2023-02-27T18:20:33.456Z,101029.59
2023-02-27T18:25:35.956Z,101037.72
2023-02-27T18:30:39.322Z,101031.38
2023-02-27T18:35:40.942Z,101031.06
2023-02-27T18:40:42.906Z,101029.66
2023-02-27T18:45:44.545Z,101026.16
2023-02-27T18:50:46.201Z,101029.16
2023-02-27T18:55:47.878Z,101032.63
2023-02-27T19:00:49.499Z,101036.41
2023-02-27T19:05:51.316Z,101040.31
2023-02-27T19:10:53.162Z,101038.56
2023-02-27T19:15:54.871Z,101049.09
2023-02-27T19:20:57.449Z,101052.47
2023-02-27T19:26:02.929Z,101049.00
2023-02-27T19:31:09.637Z,101051.78
2023-02-27T19:36:14.265Z,101042.06
2023-02-27T19:41:17.911Z,101043.75
2023-02-27T19:46:32.659Z,101043.81
2023-02-27T19:51:34.574Z,101054.00
2023-02-27T19:56:36.250Z,101063.09
2023-02-27T20:01:39.009Z,101057.31
2023-02-27T20:06:44.041Z,101071.00
2023-02-27T20:11:47.975Z,101064.69
2023-02-27T20:16:49.841Z,101067.28
2023-02-27T20:21:55.449Z,101061.81
2023-02-27T20:26:59.234Z,101066.09
2023-02-27T20:32:01.350Z,101063.28
2023-02-27T20:37:03.261Z,101061.91
2023-02-27T20:42:05.895Z,101064.75
2023-02-27T20:47:09.067Z,101068.00
2023-02-27T20:52:10.733Z,101065.00
2023-02-27T20:57:12.394Z,101068.44
2023-02-27T21:02:14.059Z,101060.25
2023-02-27T21:07:18.678Z,101061.22
2023-02-27T21:12:20.341Z,101072.81
2023-02-27T21:17:23.319Z,101069.69
2023-02-27T21:22:24.924Z,101074.66
2023-02-27T21:27:26.684Z,101072.94
2023-02-27T21:32:28.296Z,101074.91
2023-02-27T21:37:29.923Z,101074.91
2023-02-27T21:42:31.867Z,101074.81
2023-02-27T21:47:33.485Z,101069.00
2023-02-27T21:52:35.173Z,101075.81
2023-02-27T21:57:38.693Z,101067.88
2023-02-27T22:02:40.442Z,101069.06
2023-02-27T22:07:42.082Z,101070.38
2023-02-27T22:12:43.703Z,101074.19
2023-02-27T22:17:45.372Z,101072.28
2023-02-27T22:22:47.360Z,101078.75
2023-02-27T22:27:48.975Z,101083.25
2023-02-27T22:32:50.603Z,101083.41
2023-02-27T22:37:52.266Z,101086.69
2023-02-27T22:42:53.884Z,101080.03
2023-02-27T22:47:55.493Z,101077.75
2023-02-27T22:52:57.100Z,101077.69
2023-02-27T22:57:58.713Z,101080.66
2023-02-27T23:03:00.299Z,101077.00
2023-02-27T23:08:01.918Z,101084.94
2023-02-27T23:13:03.542Z,101076.72
2023-02-27T23:18:06.261Z,101083.59
2023-02-27T23:23:09.090Z,101077.75
2023-02-27T23:28:10.750Z,101088.09
2023-02-27T23:33:12.466Z,101090.38
2023-02-27T23:38:14.144Z,101094.66
2023-02-27T23:43:34.432Z,101103.34
2023-02-27T23:48:36.541Z,101093.59
2023-02-27T23:53:40.380Z,101099.19
2023-02-27T23:58:42.148Z,101101.13
